Time;durP1;ratioP1;P1;durP2;ratioP2;P2;SDS_P1;SDS_P2;PMS_P1;PMS_P2;Temp;Humidity;BMP_temperature;BMP_pressure;BME280_temperature;BME280_humidity;BME280_pressure;Samples;Min_cycle;Max_cycle;Signal;HPM_P1;HPM_P2
2021/06/29 00:01:51;;;;;;;;;;;;;;;20.90;61.06;100908.81;5056644;28;863;-56
2021/06/29 00:04:17;;;;;;;;;;;;;;;21.22;60.24;100907.22;5057115;28;811;-44
2021/06/29 00:06:42;;;;;;;;;;;;;;;21.05;60.75;100907.78;5056886;28;784;-45
2021/06/29 00:09:08;;;;;;;;;;;;;;;21.02;60.85;100914.72;5056768;28;764;-45
2021/06/29 00:11:33;;;;;;;;;;;;;;;20.73;62.06;100912.13;5056710;28;772;-49
2021/06/29 00:13:59;;;;;;;;;;;;;;;20.57;62.37;100914.25;5056428;28;1006;-58
2021/06/29 00:16:24;;;;;;;;;;;;;;;20.17;60.53;100907.03;5056749;28;1906;-46
2021/06/29 00:18:49;;;;;;;;;;;;;;;20.71;62.43;100904.13;5056638;28;784;-46
2021/06/29 00:21:15;;;;;;;;;;;;;;;21.26;60.35;100902.72;5056522;28;890;-44
2021/06/29 00:23:40;;;;;;;;;;;;;;;21.17;60.77;100900.66;5056402;28;1028;-46
2021/06/29 00:26:06;;;;;;;;;;;;;;;21.31;60.15;100906.22;5056501;28;876;-45
2021/06/29 00:28:32;;;;;;;;;;;;;;;21.11;60.93;100907.41;5057052;28;803;-45
2021/06/29 00:30:57;;;;;;;;;;;;;;;20.65;61.64;100908.03;5055762;28;955;-44
2021/06/29 00:33:23;;;;;;;;;;;;;;;20.67;62.88;100908.56;5056473;28;772;-45
2021/06/29 00:35:48;;;;;;;;;;;;;;;20.61;62.11;100910.59;5056552;28;1966;-45
2021/06/29 00:38:13;;;;;;;;;;;;;;;20.63;61.48;100913.06;5056486;28;827;-45
2021/06/29 00:40:39;;;;;;;;;;;;;;;21.34;62.35;100913.09;5055999;28;867;-45
2021/06/29 00:43:04;;;;;;;;;;;;;;;21.18;61.19;100913.34;5056535;28;819;-45
2021/06/29 00:45:30;;;;;;;;;;;;;;;21.14;58.75;100912.31;5055847;28;1018;-45
2021/06/29 00:47:55;;;;;;;;;;;;;;;20.65;57.83;100902.50;5056462;28;1418;-44
2021/06/29 00:50:21;;;;;;;;;;;;;;;20.50;56.50;100903.56;5056248;28;768;-57
2021/06/29 00:52:46;;;;;;;;;;;;;;;20.33;55.73;100906.84;5056151;28;783;-45
2021/06/29 00:55:12;;;;;;;;;;;;;;;20.28;55.09;100901.38;5038475;28;851;-55
2021/06/29 00:57:39;;;;;;;;;;;;;;;20.22;55.72;100903.38;5056379;28;1925;-44
2021/06/29 01:00:08;;;;;;;;;;;;;;;20.38;56.41;100900.41;5055533;28;955;-44
2021/06/29 01:02:33;;;;;;;;;;;;;;;20.49;57.57;100899.97;5056379;28;770;-44
2021/06/29 01:04:59;;;;;;;;;;;;;;;20.74;57.75;100909.06;5056587;28;830;-44
2021/06/29 01:07:24;;;;;;;;;;;;;;;20.77;58.15;100902.91;5056174;28;744;-54
2021/06/29 01:09:49;;;;;;;;;;;;;;;20.84;58.61;100897.84;5056026;28;860;-44
2021/06/29 01:12:15;;;;;;;;;;;;;;;20.94;58.46;100899.63;5056084;28;832;-44
2021/06/29 01:14:40;;;;;;;;;;;;;;;21.11;58.24;100910.16;5055422;28;966;-44
2021/06/29 01:17:07;;;;;;;;;;;;;;;21.07;58.69;100900.81;5055972;28;1918;-45
2021/06/29 01:19:39;;;;;;;;;;;;;;;21.02;59.17;100907.25;5056220;28;784;-58
2021/06/29 01:22:08;;;;;;;;;;;;;;;20.52;61.15;100901.31;5055419;28;898;-44
2021/06/29 01:24:34;;;;;;;;;;;;;;;20.63;60.93;100896.47;5055974;28;1234;-57
2021/06/29 01:29:39;;;;;;;;;;;;;;;20.50;61.66;100900.81;5059204;28;1023;-44
2021/06/29 01:32:04;;;;;;;;;;;;;;;20.84;60.03;100897.03;5060211;28;735;-44
2021/06/29 01:34:30;;;;;;;;;;;;;;;20.94;59.71;100890.53;5060684;28;740;-44
2021/06/29 01:36:55;;;;;;;;;;;;;;;21.03;59.45;100895.06;5059271;28;1913;-57
2021/06/29 01:39:21;;;;;;;;;;;;;;;21.02;59.48;100896.19;5059930;28;813;-45
2021/06/29 01:41:46;;;;;;;;;;;;;;;21.05;59.44;100886.47;5059553;28;744;-44
2021/06/29 01:44:18;;;;;;;;;;;;;;;20.97;59.54;100889.91;5058986;28;1006;-57
2021/06/29 01:46:46;;;;;;;;;;;;;;;20.50;61.23;100887.81;5059699;28;828;-53
2021/06/29 01:49:12;;;;;;;;;;;;;;;20.39;61.51;100886.31;5059669;28;755;-58
2021/06/29 01:51:37;;;;;;;;;;;;;;;20.23;60.01;100893.97;5058750;28;744;-44
2021/06/29 01:54:03;;;;;;;;;;;;;;;20.80;60.71;100890.44;5025352;28;1057;-45
2021/06/29 01:56:31;;;;;;;;;;;;;;;20.94;60.11;100896.84;5059311;28;1909;-44
2021/06/29 01:59:01;;;;;;;;;;;;;;;20.74;60.63;100903.53;5058733;28;970;-45
2021/06/29 02:01:26;;;;;;;;;;;;;;;20.79;58.71;100902.63;5059459;28;848;-45
2021/06/29 02:03:52;;;;;;;;;;;;;;;20.94;59.60;100902.38;5059235;28;816;-57
2021/06/29 02:06:17;;;;;;;;;;;;;;;21.08;59.84;100899.69;5058834;28;828;-57
2021/06/29 02:08:42;;;;;;;;;;;;;;;21.16;59.96;100901.75;5059293;28;820;-57
2021/06/29 02:11:08;;;;;;;;;;;;;;;20.57;62.53;100904.03;5058999;28;774;-56
2021/06/29 02:13:33;;;;;;;;;;;;;;;20.60;62.66;100902.59;5058864;28;748;-48
2021/06/29 02:16:00;;;;;;;;;;;;;;;20.38;60.23;100903.19;5058679;28;2001;-45
2021/06/29 02:18:26;;;;;;;;;;;;;;;20.69;62.91;100911.88;5059210;28;791;-46
2021/06/29 02:20:51;;;;;;;;;;;;;;;21.08;61.75;100907.16;5058504;28;736;-45
2021/06/29 02:23:17;;;;;;;;;;;;;;;21.36;60.51;100913.59;5059044;28;827;-44
2021/06/29 02:25:42;;;;;;;;;;;;;;;21.45;60.20;100899.94;5058690;28;1060;-56
2021/06/29 02:28:08;;;;;;;;;;;;;;;21.18;61.24;100907.84;5058593;28;823;-44
2021/06/29 02:30:33;;;;;;;;;;;;;;;20.95;62.25;100908.75;5058500;28;1017;-44
2021/06/29 02:32:59;;;;;;;;;;;;;;;20.59;63.35;100903.72;5058375;28;801;-45
2021/06/29 02:35:24;;;;;;;;;;;;;;;20.29;60.81;100897.50;5058645;28;863;-44
2021/06/29 02:37:50;;;;;;;;;;;;;;;20.84;62.15;100899.78;5058491;28;1910;-44
2021/06/29 02:40:15;;;;;;;;;;;;;;;21.28;62.19;100900.47;5058422;28;780;-44
2021/06/29 02:42:40;;;;;;;;;;;;;;;21.34;61.61;100896.50;5058583;28;475;-44
2021/06/29 02:45:17;;;;;;;;;;;;;;;21.68;60.44;100889.84;5058106;28;1014;-45
2021/06/29 02:48:06;;;;;;;;;;;;;;;21.27;61.28;100890.56;5016468;28;1077;-45
2021/06/29 02:50:32;;;;;;;;;;;;;;;20.84;63.08;100895.06;5058110;28;867;-44
2021/06/29 02:52:57;;;;;;;;;;;;;;;20.84;62.56;100895.06;5058224;28;788;-44
2021/06/29 02:55:23;;;;;;;;;;;;;;;20.33;60.54;100881.97;5058380;28;792;-48
2021/06/29 02:57:54;;;;;;;;;;;;;;;20.80;63.09;100891.28;5058085;28;1906;-47
2021/06/29 03:00:20;;;;;;;;;;;;;;;21.31;61.63;100884.09;5057763;28;959;-45
2021/06/29 03:02:46;;;;;;;;;;;;;;;21.28;59.67;100878.34;5058536;28;752;-45
2021/06/29 03:05:11;;;;;;;;;;;;;;;20.97;60.67;100873.31;5057962;28;814;-48
2021/06/29 03:07:37;;;;;;;;;;;;;;;21.12;60.11;100878.59;5057950;28;815;-44
2021/06/29 03:10:03;;;;;;;;;;;;;;;21.05;60.20;100875.41;5058375;28;790;-46
2021/06/29 03:12:29;;;;;;;;;;;;;;;21.27;59.43;100876.72;5057593;28;756;-46
2021/06/29 03:14:57;;;;;;;;;;;;;;;20.98;60.42;100874.97;5057906;28;939;-46
2021/06/29 03:17:23;;;;;;;;;;;;;;;20.58;61.79;100885.50;5057994;28;1906;-42
2021/06/29 03:19:48;;;;;;;;;;;;;;;20.61;60.06;100887.69;5057952;28;744;-42
2021/06/29 03:22:14;;;;;;;;;;;;;;;20.48;60.56;100895.59;5057343;28;839;-42
2021/06/29 03:24:39;;;;;;;;;;;;;;;20.89;60.79;100896.97;5057820;28;1032;-46
2021/06/29 03:37:14;;;;;;;;;;;;;;;20.74;61.04;100897.19;4957316;29;1918;-42
2021/06/29 03:39:40;;;;;;;;;;;;;;;20.67;61.37;100895.59;4995922;28;908;-44
2021/06/29 03:42:06;;;;;;;;;;;;;;;20.34;60.94;100894.66;5056913;28;804;-40
2021/06/29 03:44:31;;;;;;;;;;;;;;;19.91;60.97;100891.84;5057200;28;1030;-41
2021/06/29 03:46:57;;;;;;;;;;;;;;;20.60;62.13;100900.66;5057443;28;818;-68
2021/06/29 03:49:22;;;;;;;;;;;;;;;21.06;61.76;100896.41;5056842;28;808;-42
2021/06/29 03:51:50;;;;;;;;;;;;;;;21.14;61.63;100897.66;5057038;28;757;-42
2021/06/29 03:54:15;;;;;;;;;;;;;;;21.07;61.79;100895.31;5057178;28;775;-43
2021/06/29 03:56:41;;;;;;;;;;;;;;;21.18;61.70;100898.69;5056961;28;1918;-44
2021/06/29 03:59:07;;;;;;;;;;;;;;;20.86;62.95;100897.56;5056641;28;967;-55
2021/06/29 04:01:32;;;;;;;;;;;;;;;20.79;63.42;100900.69;5056893;28;803;-51
2021/06/29 04:03:58;;;;;;;;;;;;;;;20.29;60.91;100895.53;5056723;28;772;-41
2021/06/29 04:06:30;;;;;;;;;;;;;;;20.87;62.47;100910.25;5056760;28;744;-41
2021/06/29 04:08:56;;;;;;;;;;;;;;;21.49;61.96;100903.69;5057074;28;811;-40
2021/06/29 04:11:22;;;;;;;;;;;;;;;21.14;60.60;100901.25;5057077;28;768;-62
2021/06/29 04:13:47;;;;;;;;;;;;;;;20.91;59.24;100904.94;5056288;28;963;-44
2021/06/29 04:16:13;;;;;;;;;;;;;;;20.63;57.73;100890.94;5057050;28;1983;-44
2021/06/29 04:18:38;;;;;;;;;;;;;;;20.51;56.29;100899.69;5056796;28;784;-44
2021/06/29 04:21:04;;;;;;;;;;;;;;;20.37;55.33;100888.56;5056370;28;823;-43
2021/06/29 04:23:29;;;;;;;;;;;;;;;20.37;54.14;100899.59;5056735;28;823;-43
2021/06/29 04:25:54;;;;;;;;;;;;;;;20.33;53.72;100890.28;5056918;28;1083;-43
2021/06/29 04:28:20;;;;;;;;;;;;;;;20.45;54.69;100884.28;5056403;28;827;-45
2021/06/29 04:30:46;;;;;;;;;;;;;;;20.40;56.42;100882.44;5056218;28;1014;-43
2021/06/29 04:33:11;;;;;;;;;;;;;;;20.72;56.98;100880.06;5056401;28;767;-45
2021/06/29 04:35:37;;;;;;;;;;;;;;;20.73;58.01;100884.50;5056607;28;728;-43
2021/06/29 04:38:02;;;;;;;;;;;;;;;20.81;58.59;100889.34;5054847;28;1906;-43
2021/06/29 04:40:28;;;;;;;;;;;;;;;20.81;59.17;100884.63;5035974;28;858;-43
2021/06/29 04:42:53;;;;;;;;;;;;;;;20.89;59.49;100885.06;5036239;28;828;-42
2021/06/29 04:45:19;;;;;;;;;;;;;;;20.78;60.52;100888.00;5049685;28;1019;-43
2021/06/29 04:48:17;;;;;;;;;;;;;;;20.71;60.23;100892.28;5056344;28;720;-43
2021/06/29 04:50:44;;;;;;;;;;;;;;;20.37;59.70;100898.75;5056008;28;760;-44
2021/06/29 04:53:10;;;;;;;;;;;;;;;20.99;61.12;100901.50;5056133;28;848;-43
2021/06/29 04:55:35;;;;;;;;;;;;;;;21.09;61.12;100900.53;5056141;28;736;-44
2021/06/29 04:58:01;;;;;;;;;;;;;;;21.30;60.74;100892.72;5056424;28;1906;-43
2021/06/29 05:00:26;;;;;;;;;;;;;;;21.20;61.45;100894.50;5056517;28;1019;-43
2021/06/29 05:02:52;;;;;;;;;;;;;;;20.96;62.85;100899.34;5060520;28;807;-43
2021/06/29 05:05:18;;;;;;;;;;;;;;;20.91;62.89;100900.22;5060044;28;779;-44
2021/06/29 05:07:45;;;;;;;;;;;;;;;20.45;61.96;100895.34;5060250;28;787;-40
2021/06/29 05:10:10;;;;;;;;;;;;;;;20.85;62.75;100902.25;5060385;28;665;-40
2021/06/29 05:12:36;;;;;;;;;;;;;;;21.26;63.42;100889.72;5060048;28;779;-40
2021/06/29 05:15:02;;;;;;;;;;;;;;;21.53;62.53;100897.31;5060073;28;1010;-40
2021/06/29 05:17:27;;;;;;;;;;;;;;;21.28;63.00;100895.78;5060418;28;1957;-40
2021/06/29 05:19:53;;;;;;;;;;;;;;;20.80;64.09;100902.34;5060063;28;783;-40
2021/06/29 05:22:18;;;;;;;;;;;;;;;20.52;63.62;100907.69;5059959;28;789;-39
2021/06/29 05:24:44;;;;;;;;;;;;;;;20.72;61.55;100905.78;5059971;28;1087;-43
2021/06/29 05:27:09;;;;;;;;;;;;;;;21.29;63.21;100907.66;5059898;28;796;-41
2021/06/29 05:29:34;;;;;;;;;;;;;;;21.68;62.32;100906.44;5059878;28;1101;-39
2021/06/29 05:32:00;;;;;;;;;;;;;;;21.49;61.37;100912.84;5059895;28;819;-41
2021/06/29 05:34:25;;;;;;;;;;;;;;;21.91;61.62;100898.25;5059373;28;756;-40
2021/06/29 05:36:51;;;;;;;;;;;;;;;;;;5059787;28;1986;-40
2021/06/29 05:39:17;;;;;;;;;;;;;;;21.00;66.00;100916.97;5059730;28;785;-43
2021/06/29 05:41:43;;;;;;;;;;;;;;;21.19;62.99;100901.16;5059348;28;776;-43
2021/06/29 05:44:08;;;;;;;;;;;;;;;21.01;62.38;100913.06;5059729;28;1017;-42
2021/06/29 05:46:34;;;;;;;;;;;;;;;20.77;64.43;100910.41;5059605;28;815;-45
2021/06/29 05:49:01;;;;;;;;;;;;;;;20.99;64.64;100901.50;5059199;28;740;-43
2021/06/29 05:51:27;;;;;;;;;;;;;;;20.85;65.08;100905.00;5059795;28;814;-43
2021/06/29 05:53:52;;;;;;;;;;;;;;;20.80;65.42;100905.13;5059885;28;756;-43
2021/06/29 05:56:18;;;;;;;;;;;;;;;20.98;64.79;100900.66;5058900;28;1918;-44
2021/06/29 05:58:43;;;;;;;;;;;;;;;21.05;64.39;100903.06;5059292;28;971;-44
2021/06/29 06:01:09;;;;;;;;;;;;;;;20.90;65.62;100906.06;5059325;28;779;-44
2021/06/29 06:03:35;;;;;;;;;;;;;;;21.01;64.75;100902.84;5058891;28;859;-43
2021/06/29 06:06:00;;;;;;;;;;;;;;;21.05;65.08;100908.59;5059226;28;577;-43
2021/06/29 06:08:25;;;;;;;;;;;;;;;21.10;65.93;100908.50;5059350;28;839;-43
2021/06/29 06:10:52;;;;;;;;;;;;;;;21.13;65.87;100904.31;5058654;28;839;-43
2021/06/29 06:13:17;;;;;;;;;;;;;;;21.23;65.41;100901.38;5058857;28;744;-63
2021/06/29 06:15:43;;;;;;;;;;;;;;;21.19;65.45;100903.13;5058801;28;963;-44
2021/06/29 06:18:08;;;;;;;;;;;;;;;21.15;64.10;100907.59;5058745;28;1973;-43
2021/06/29 06:20:34;;;;;;;;;;;;;;;21.30;63.15;100907.34;5059259;28;804;-43
2021/06/29 06:22:59;;;;;;;;;;;;;;;21.34;64.62;100910.34;5059306;28;784;-44
2021/06/29 06:25:25;;;;;;;;;;;;;;;21.25;65.19;100909.38;5058317;28;1054;-44
2021/06/29 06:27:50;;;;;;;;;;;;;;;21.42;65.09;100909.66;5059093;28;776;-43
2021/06/29 06:30:18;;;;;;;;;;;;;;;21.36;66.16;100908.06;5058522;28;955;-45
2021/06/29 06:32:43;;;;;;;;;;;;;;;20.96;64.22;100905.69;5058427;28;808;-63
2021/06/29 06:35:09;;;;;;;;;;;;;;;20.86;66.25;100908.63;5058680;28;805;-44
2021/06/29 06:37:34;;;;;;;;;;;;;;;21.29;66.02;100902.94;5058802;28;1914;-43
2021/06/29 06:40:00;;;;;;;;;;;;;;;21.40;65.52;100900.00;5058381;28;752;-44
2021/06/29 06:42:25;;;;;;;;;;;;;;;21.53;65.37;100896.47;5058720;28;824;-44
2021/06/29 06:44:51;;;;;;;;;;;;;;;21.65;64.80;100905.09;5058226;28;1022;-44
2021/06/29 06:47:16;;;;;;;;;;;;;;;21.67;64.49;100902.88;5058061;28;824;-43
2021/06/29 06:49:41;;;;;;;;;;;;;;;21.62;65.24;100904.91;5058384;28;870;-44
2021/06/29 06:52:07;;;;;;;;;;;;;;;21.70;64.55;100907.78;5058458;28;763;-44
2021/06/29 06:54:33;;;;;;;;;;;;;;;21.29;65.69;100904.88;5040111;28;879;-44
2021/06/29 06:56:58;;;;;;;;;;;;;;;20.69;65.98;100900.84;5058083;28;1909;-43
2021/06/29 06:59:23;;;;;;;;;;;;;;;20.44;65.94;100902.81;5058282;28;967;-43
2021/06/29 07:01:49;;;;;;;;;;;;;;;20.40;65.09;100904.53;5058287;28;818;-44
2021/06/29 07:04:16;;;;;;;;;;;;;;;20.24;64.87;100900.31;5040456;28;1111;-43
2021/06/29 07:06:41;;;;;;;;;;;;;;;20.27;64.60;100905.25;5058061;28;882;-43
2021/06/29 07:09:07;;;;;;;;;;;;;;;20.28;63.12;100907.69;5058177;28;816;-43
2021/06/29 07:11:32;;;;;;;;;;;;;;;20.80;61.93;100907.88;5058180;28;815;-43
2021/06/29 07:13:58;;;;;;;;;;;;;;;21.06;60.46;100910.22;5057814;28;1018;-43
2021/06/29 07:16:23;;;;;;;;;;;;;;;20.95;60.22;100906.00;5057881;28;1973;-43
2021/06/29 07:18:49;;;;;;;;;;;;;;;21.00;59.67;100901.22;5057417;28;752;-44
2021/06/29 07:21:14;;;;;;;;;;;;;;;21.02;59.09;100898.13;5058152;28;752;-44
2021/06/29 07:23:39;;;;;;;;;;;;;;;21.03;58.80;100902.56;5057522;28;1020;-43
2021/06/29 07:26:05;;;;;;;;;;;;;;;21.02;58.65;100898.13;5057137;28;779;-45
2021/06/29 07:28:30;;;;;;;;;;;;;;;20.82;59.08;100902.03;5058148;28;819;-45
2021/06/29 07:30:56;;;;;;;;;;;;;;;20.92;58.69;100909.38;5057327;28;1011;-44
2021/06/29 07:33:21;;;;;;;;;;;;;;;21.05;58.64;100905.81;5057089;28;843;-45
2021/06/29 07:35:47;;;;;;;;;;;;;;;21.11;58.59;100896.34;5058046;28;767;-45
2021/06/29 07:38:12;;;;;;;;;;;;;;;20.60;60.34;100902.59;5040014;28;1910;-43
2021/06/29 07:40:37;;;;;;;;;;;;;;;20.33;61.59;100902.13;5057366;28;736;-42
2021/06/29 07:43:03;;;;;;;;;;;;;;;20.28;61.01;100896.66;5057603;28;871;-42
2021/06/29 07:45:29;;;;;;;;;;;;;;;20.80;59.85;100902.34;5057027;28;1015;-42
2021/06/29 07:47:57;;;;;;;;;;;;;;;21.02;58.94;100903.66;5057015;28;815;-42
2021/06/29 07:50:22;;;;;;;;;;;;;;;21.00;59.27;100903.97;5039667;28;801;-42
2021/06/29 07:52:47;;;;;;;;;;;;;;;21.05;59.04;100908.59;5057275;28;740;-46
2021/06/29 07:55:13;;;;;;;;;;;;;;;21.11;58.79;100906.56;5057183;28;776;-42
2021/06/29 07:57:38;;;;;;;;;;;;;;;21.12;58.64;100905.44;5057151;28;1913;-44
2021/06/29 08:00:05;;;;;;;;;;;;;;;20.74;60.02;100914.59;5056731;28;978;-43
2021/06/29 08:02:37;;;;;;;;;;;;;;;20.39;60.58;100908.41;5056807;28;613;-42
2021/06/29 08:05:03;;;;;;;;;;;;;;;19.93;59.92;100901.50;5057441;28;798;-59
2021/06/29 08:07:29;;;;;;;;;;;;;;;20.72;60.78;100900.25;5056876;28;795;-42
2021/06/29 08:09:55;;;;;;;;;;;;;;;21.28;59.79;100906.84;5056601;28;732;-43
2021/06/29 08:12:20;;;;;;;;;;;;;;;21.71;60.48;100914.13;5057054;28;815;-42
2021/06/29 08:14:46;;;;;;;;;;;;;;;21.23;63.49;100906.91;5056846;28;967;-43
2021/06/29 08:17:11;;;;;;;;;;;;;;;21.09;66.08;100911.59;5056327;28;1918;-42
2021/06/29 08:19:36;;;;;;;;;;;;;;;21.19;64.70;100903.91;5056872;28;808;-44
2021/06/29 08:22:02;;;;;;;;;;;;;;;20.52;62.09;100907.69;5056660;28;759;-43
2021/06/29 08:24:28;;;;;;;;;;;;;;;21.12;61.21;100909.03;5056669;28;1028;-42
2021/06/29 08:26:53;;;;;;;;;;;;;;;21.51;62.28;100910.56;5056729;28;739;-41
2021/06/29 08:29:18;;;;;;;;;;;;;;;21.52;62.99;100905.91;5056259;28;975;-41
2021/06/29 08:31:44;;;;;;;;;;;;;;;21.32;63.27;100907.03;5056291;28;784;-40
2021/06/29 08:34:10;;;;;;;;;;;;;;;21.26;62.24;100908.25;5056575;28;824;-42
2021/06/29 08:36:41;;;;;;;;;;;;;;;20.94;62.11;100896.06;5056356;28;1902;-37
2021/06/29 08:39:10;;;;;;;;;;;;;;;21.05;61.13;100899.47;5056175;28;756;-62
2021/06/29 08:41:37;;;;;;;;;;;;;;;20.67;61.52;100892.00;5038776;28;835;-40
2021/06/29 08:44:02;;;;;;;;;;;;;;;20.46;60.33;100886.75;5038435;28;1166;-41
2021/06/29 08:46:27;;;;;;;;;;;;;;;20.01;61.40;100880.72;5038053;28;793;-52
2021/06/29 08:48:53;;;;;;;;;;;;;;;20.73;60.31;100896.34;5056183;28;767;-63
2021/06/29 08:51:18;;;;;;;;;;;;;;;20.55;60.27;100888.84;5056330;28;768;-41
2021/06/29 08:53:44;;;;;;;;;;;;;;;20.59;60.06;100895.44;5056494;28;791;-41
2021/06/29 08:56:15;;;;;;;;;;;;;;;20.82;59.35;100902.84;5038233;28;1989;-44
2021/06/29 08:58:41;;;;;;;;;;;;;;;20.82;58.98;100896.53;5056024;28;959;-42
2021/06/29 09:01:07;;;;;;;;;;;;;;;20.68;59.15;100888.97;5056102;28;1526;-61
2021/06/29 09:03:32;;;;;;;;;;;;;;;20.81;58.70;100892.91;5056413;28;871;-40
2021/06/29 09:05:58;;;;;;;;;;;;;;;20.91;58.46;100902.19;5056352;28;791;-41
2021/06/29 09:08:23;;;;;;;;;;;;;;;20.86;58.24;100894.81;5056162;28;732;-41
2021/06/29 09:11:13;;;;;;;;;;;;;;;20.82;58.28;100894.56;5056216;28;844;-43
2021/06/29 09:13:39;;;;;;;;;;;;;;;20.75;58.47;100894.13;5056463;28;1003;-41
2021/06/29 09:16:04;;;;;;;;;;;;;;;20.38;59.94;100898.47;5055581;28;1914;-48
2021/06/29 09:18:31;;;;;;;;;;;;;;;20.12;59.64;100882.25;5055946;28;736;-68
2021/06/29 09:20:57;;;;;;;;;;;;;;;20.22;60.16;100891.53;5056103;28;804;-57
2021/06/29 09:23:22;;;;;;;;;;;;;;;20.84;59.47;100897.84;5056064;28;740;-66
2021/06/29 09:25:58;;;;;;;;;;;;;;;21.17;60.43;100888.78;5055991;28;1245;-63
2021/06/29 09:28:24;;;;;;;;;;;;;;;21.72;60.77;100899.16;5055970;28;828;-42
2021/06/29 09:30:51;;;;;;;;;;;;;;;21.71;62.60;100897.53;5055569;28;963;-40
2021/06/29 09:33:32;;;;;;;;;;;;;;;21.15;65.28;100889.09;5038356;28;1114;-42
2021/06/29 09:35:58;;;;;;;;;;;;;;;;;;5056011;28;1976;-41
2021/06/29 09:38:25;;;;;;;;;;;;;;;20.48;62.16;100883.69;5055641;28;740;-65
2021/06/29 09:40:53;;;;;;;;;;;;;;;20.37;58.16;100883.03;5055986;28;828;-42
2021/06/29 09:43:19;;;;;;;;;;;;;;;20.38;59.31;100884.66;5056103;28;791;-41
2021/06/29 09:45:45;;;;;;;;;;;;;;;20.33;58.75;100877.28;5055207;28;987;-43
2021/06/29 09:48:14;;;;;;;;;;;;;;;20.32;57.95;100875.63;5041562;28;729;-60
2021/06/29 09:50:41;;;;;;;;;;;;;;;20.49;58.07;100874.28;5059855;28;768;-41
2021/06/29 09:53:13;;;;;;;;;;;;;;;20.69;58.10;100878.72;5059092;28;827;-42
2021/06/29 09:55:39;;;;;;;;;;;;;;;20.79;58.18;100878.59;5059625;28;740;-42
2021/06/29 09:58:11;;;;;;;;;;;;;;;20.92;58.25;100871.47;5059841;28;1914;-41
2021/06/29 10:00:43;;;;;;;;;;;;;;;20.81;58.93;100875.53;5058634;28;967;-43
2021/06/29 10:03:35;;;;;;;;;;;;;;;21.18;58.31;100874.66;5059445;28;784;-41
2021/06/29 10:06:01;;;;;;;;;;;;;;;20.35;61.07;100871.44;5054718;28;1745;-41
2021/06/29 10:08:33;;;;;;;;;;;;;;;20.35;61.59;100879.72;5058898;28;740;-40
2021/06/29 10:11:03;;;;;;;;;;;;;;;20.10;60.08;100878.13;5059144;28;835;-41
2021/06/29 10:13:29;;;;;;;;;;;;;;;20.38;61.59;100873.59;5059208;28;748;-41
2021/06/29 10:15:54;;;;;;;;;;;;;;;20.75;61.11;100876.72;5040744;28;1298;-40
2021/06/29 10:18:20;;;;;;;;;;;;;;;21.29;60.93;100874.47;5041603;28;1906;-42
2021/06/29 10:20:53;;;;;;;;;;;;;;;21.20;62.95;100874.34;5024270;28;1326;-42
2021/06/29 10:23:19;;;;;;;;;;;;;;;20.91;65.49;100877.31;5042137;28;991;-42
2021/06/29 10:25:44;;;;;;;;;;;;;;;21.02;65.15;100876.03;5058951;28;1266;-44
2021/06/29 10:28:13;;;;;;;;;;;;;;;20.89;62.37;100869.31;5058930;28;799;-62
2021/06/29 10:30:39;;;;;;;;;;;;;;;20.57;60.15;100859.00;5058243;28;1011;-41
2021/06/29 10:33:05;;;;;;;;;;;;;;;21.30;62.49;100865.84;5059250;28;774;-42
2021/06/29 10:35:31;;;;;;;;;;;;;;;21.72;64.30;100865.16;5058626;28;855;-41
2021/06/29 10:37:56;;;;;;;;;;;;;;;22.04;65.15;100858.69;5058733;28;1918;-41
2021/06/29 10:40:21;;;;;;;;;;;;;;;22.27;65.52;100856.78;5058458;28;808;-41
2021/06/29 10:42:47;;;;;;;;;;;;;;;21.49;67.03;100856.66;5058799;28;736;-42
2021/06/29 10:45:13;;;;;;;;;;;;;;;21.27;68.53;100855.41;5058044;28;1023;-63
2021/06/29 10:47:39;;;;;;;;;;;;;;;20.69;64.38;100856.63;5058584;28;840;-62
2021/06/29 10:50:07;;;;;;;;;;;;;;;20.33;58.17;100851.59;5058231;28;796;-42
2021/06/29 10:52:34;;;;;;;;;;;;;;;20.39;59.66;100847.63;5041070;28;1133;-41
2021/06/29 10:55:11;;;;;;;;;;;;;;;20.08;59.79;100841.72;5058388;28;815;-42
2021/06/29 10:57:37;;;;;;;;;;;;;;;20.02;57.52;100849.25;5058188;28;1965;-39
2021/06/29 11:00:03;;;;;;;;;;;;;;;20.15;55.57;100844.94;5057443;28;955;-41
2021/06/29 11:02:30;;;;;;;;;;;;;;;20.09;54.80;100852.47;5058497;28;768;-42
2021/06/29 11:04:59;;;;;;;;;;;;;;;20.02;54.80;100845.66;5058389;28;737;-43
2021/06/29 11:07:30;;;;;;;;;;;;;;;20.10;54.09;100856.03;5057996;28;729;-42
2021/06/29 11:09:57;;;;;;;;;;;;;;;19.98;54.22;100849.00;5057919;28;810;-45
2021/06/29 11:12:23;;;;;;;;;;;;;;;20.16;56.29;100841.88;5058490;28;879;-41
2021/06/29 11:14:49;;;;;;;;;;;;;;;20.67;59.06;100845.03;5057563;28;959;-42
2021/06/29 11:17:15;;;;;;;;;;;;;;;20.92;61.30;100831.97;5057777;28;1975;-42
2021/06/29 11:19:59;;;;;;;;;;;;;;;21.15;62.82;100842.06;5040629;28;819;-41
2021/06/29 11:22:43;;;;;;;;;;;;;;;20.91;65.48;100841.38;5057488;28;748;-56
2021/06/29 11:25:09;;;;;;;;;;;;;;;20.96;65.05;100827.47;5057702;28;1017;-42
2021/06/29 11:27:53;;;;;;;;;;;;;;;20.78;62.64;100832.72;5057895;28;808;-42
2021/06/29 11:30:37;;;;;;;;;;;;;;;20.60;60.67;100828.00;5056738;28;999;-42
2021/06/29 11:33:21;;;;;;;;;;;;;;;21.43;63.47;100825.50;5057799;28;749;-42
2021/06/29 11:35:46;;;;;;;;;;;;;;;21.81;65.38;100828.16;5039827;28;1170;-42
2021/06/29 11:38:12;;;;;;;;;;;;;;;22.17;65.95;100816.28;5057665;28;1910;-51
2021/06/29 11:40:37;;;;;;;;;;;;;;;21.74;66.92;100826.91;5057432;28;767;-42
2021/06/29 11:43:07;;;;;;;;;;;;;;;21.44;69.40;100821.63;5057663;28;724;-42
2021/06/29 11:45:32;;;;;;;;;;;;;;;21.15;66.01;100824.66;5039154;28;1030;-62
2021/06/29 11:47:58;;;;;;;;;;;;;;;20.66;59.14;100815.75;5057991;28;764;-62
2021/06/29 11:50:25;;;;;;;;;;;;;;;20.92;59.29;100820.91;5057041;28;800;-46
2021/06/29 11:52:50;;;;;;;;;;;;;;;20.58;59.36;100816.44;5057407;28;764;-42
2021/06/29 11:55:19;;;;;;;;;;;;;;;20.25;58.82;100819.13;5057410;28;748;-43
2021/06/29 11:57:54;;;;;;;;;;;;;;;20.20;56.90;100814.47;5039447;28;2003;-43
2021/06/29 12:00:22;;;;;;;;;;;;;;;20.18;55.47;100816.72;5057071;28;959;-42
2021/06/29 12:02:48;;;;;;;;;;;;;;;19.97;55.19;100818.94;5057123;28;795;-41
2021/06/29 12:05:18;;;;;;;;;;;;;;;20.00;54.69;100815.59;5056804;28;808;-44
2021/06/29 12:07:44;;;;;;;;;;;;;;;19.96;54.49;100818.13;5057426;28;819;-40
2021/06/29 12:10:11;;;;;;;;;;;;;;;20.03;54.81;100809.47;5056549;28;835;-45
2021/06/29 12:12:37;;;;;;;;;;;;;;;20.52;56.59;100813.75;5056589;28;863;-41
2021/06/29 12:15:05;;;;;;;;;;;;;;;20.93;59.13;100811.47;5056857;28;975;-61
2021/06/29 12:17:31;;;;;;;;;;;;;;;21.22;61.08;100814.00;5056853;28;1982;-44
2021/06/29 12:19:57;;;;;;;;;;;;;;;21.07;62.87;100815.13;5057214;28;834;-55
2021/06/29 12:22:29;;;;;;;;;;;;;;;20.77;65.68;100814.50;5056600;28;848;-41
2021/06/29 12:24:54;;;;;;;;;;;;;;;20.78;64.00;100816.16;5056666;28;1041;-41
2021/06/29 12:27:20;;;;;;;;;;;;;;;20.78;61.63;100805.09;5038812;28;819;-42
2021/06/29 12:29:45;;;;;;;;;;;;;;;21.60;63.97;100802.00;5056065;28;1007;-43
2021/06/29 12:32:18;;;;;;;;;;;;;;;22.09;64.60;100803.19;5038732;28;771;-43
2021/06/29 12:34:43;;;;;;;;;;;;;;;22.48;64.23;100807.34;5056863;28;802;-42
2021/06/29 12:37:09;;;;;;;;;;;;;;;22.25;64.48;100800.91;5056283;28;1884;-42
2021/06/29 12:39:34;;;;;;;;;;;;;;;21.86;65.38;100799.53;5056454;28;764;-42
2021/06/29 12:42:00;;;;;;;;;;;;;;;21.80;63.40;100798.81;5038719;28;756;-41
2021/06/29 12:44:26;;;;;;;;;;;;;;;21.24;59.69;100800.72;5038149;28;1374;-41
2021/06/29 12:46:51;;;;;;;;;;;;;;;21.31;61.32;100803.91;5056386;28;756;-41
2021/06/29 12:49:19;;;;;;;;;;;;;;;21.24;60.71;100791.56;5038548;28;784;-42
2021/06/29 12:51:44;;;;;;;;;;;;;;;20.98;58.96;100794.81;5037517;28;859;-41
2021/06/29 12:54:11;;;;;;;;;;;;;;;20.77;56.74;100792.38;5056250;28;832;-41
2021/06/29 12:56:40;;;;;;;;;;;;;;;20.85;54.66;100790.88;5056288;28;1914;-42
2021/06/29 12:59:06;;;;;;;;;;;;;;;20.85;53.92;100791.69;5055733;28;999;-42
2021/06/29 13:01:32;;;;;;;;;;;;;;;20.64;55.57;100788.44;5056359;28;759;-43
2021/06/29 13:03:59;;;;;;;;;;;;;;;21.15;57.34;100778.47;5056408;28;863;-41
2021/06/29 13:06:25;;;;;;;;;;;;;;;21.47;59.44;100779.50;5055787;28;851;-39